Time;durP1;ratioP1;P1;durP2;ratioP2;P2;SDS_P1;SDS_P2;PMS_P1;PMS_P2;Temp;Humidity;BMP_temperature;BMP_pressure;BME280_temperature;BME280_humidity;BME280_pressure;Samples;Min_cycle;Max_cycle;Signal;HPM_P1;HPM_P2
2022/01/17 00:00:59;;;;;;;14.57;8.00;;;3.30;99.90;;;;;;4964861;28;20313;-72
2022/01/17 00:03:26;;;;;;;14.40;7.47;;;3.40;99.90;;;;;;4957013;28;20532;-72
2022/01/17 00:05:52;;;;;;;14.32;8.52;;;3.50;99.90;;;;;;4967058;28;20566;-72
2022/01/17 00:08:18;;;;;;;15.18;8.38;;;3.50;99.90;;;;;;4960281;28;20031;-71
2022/01/17 00:10:46;;;;;;;16.30;9.37;;;3.50;99.90;;;;;;4956620;28;20038;-71
2022/01/17 00:13:24;;;;;;;17.90;8.82;;;3.40;99.90;;;;;;4959047;28;20022;-71
2022/01/17 00:15:56;;;;;;;18.33;8.68;;;3.50;99.90;;;;;;4964752;28;20023;-72
2022/01/17 00:18:30;;;;;;;16.83;8.07;;;3.60;99.90;;;;;;4959531;28;20026;-72
2022/01/17 00:20:57;;;;;;;15.68;8.55;;;3.60;99.90;;;;;;4960305;28;20050;-72
2022/01/17 00:23:23;;;;;;;16.52;8.60;;;3.70;99.90;;;;;;4965499;28;20019;-73
2022/01/17 00:25:50;;;;;;;16.97;8.73;;;3.70;99.90;;;;;;4969569;28;20392;-72
2022/01/17 00:28:16;;;;;;;16.70;8.55;;;3.80;99.90;;;;;;4961293;28;20114;-72
2022/01/17 00:30:42;;;;;;;14.53;7.40;;;3.80;99.90;;;;;;4962824;28;20092;-72
2022/01/17 00:33:09;;;;;;;14.75;7.60;;;3.90;99.90;;;;;;4957420;28;20026;-71
2022/01/17 00:35:35;;;;;;;18.10;8.93;;;3.90;99.90;;;;;;4960974;28;20027;-72
2022/01/17 00:38:01;;;;;;;17.67;8.33;;;3.90;99.90;;;;;;4960448;28;20027;-72
2022/01/17 00:40:27;;;;;;;16.83;8.50;;;3.90;99.90;;;;;;4961662;28;20030;-71
2022/01/17 00:42:54;;;;;;;16.45;9.18;;;3.90;99.90;;;;;;4964830;28;20029;-71
2022/01/17 00:45:26;;;;;;;19.42;9.55;;;3.90;99.90;;;;;;4964306;28;20117;-72
2022/01/17 00:47:55;;;;;;;17.25;8.98;;;3.90;99.90;;;;;;4966046;28;20023;-71
2022/01/17 00:50:25;;;;;;;19.90;9.95;;;3.80;99.90;;;;;;4967266;28;20650;-71
2022/01/17 00:52:51;;;;;;;17.58;9.45;;;3.70;99.90;;;;;;4959176;28;20037;-71
2022/01/17 00:55:18;;;;;;;17.92;9.52;;;3.60;99.90;;;;;;4966151;28;20514;-72
2022/01/17 00:57:44;;;;;;;18.38;10.60;;;3.60;99.90;;;;;;4959088;28;20683;-72
2022/01/17 01:00:12;;;;;;;17.13;9.90;;;3.50;99.90;;;;;;4964748;28;20045;-72
2022/01/17 01:02:39;;;;;;;21.13;10.43;;;3.50;99.90;;;;;;4963257;28;20325;-72
2022/01/17 01:05:05;;;;;;;20.83;10.48;;;3.40;99.90;;;;;;4964621;28;20109;-72
2022/01/17 01:07:31;;;;;;;;;;;3.40;99.90;;;;;;4965930;28;20748;-72
2022/01/17 01:10:18;;;;;;;16.95;9.60;;;3.30;99.90;;;;;;4959743;28;20000;-72
2022/01/17 01:12:47;;;;;;;19.10;9.57;;;3.30;99.90;;;;;;4966237;28;20041;-73
2022/01/17 01:15:57;;;;;;;17.95;9.73;;;3.30;99.90;;;;;;4960966;28;20105;-71
2022/01/17 01:29:30;;;;;;;17.98;8.35;;;3.30;99.90;;;;;;4968745;28;20032;-71
2022/01/17 01:32:03;;;;;;;16.75;9.50;;;3.30;99.90;;;;;;4970019;28;20042;-72
2022/01/17 01:34:39;;;;;;;15.23;8.63;;;3.30;99.90;;;;;;4965585;28;20113;-71
2022/01/17 01:37:04;;;;;;;15.90;8.95;;;3.30;99.90;;;;;;4967485;28;20662;-72
2022/01/17 01:39:32;;;;;;;19.17;8.57;;;3.30;99.90;;;;;;4977145;28;20084;-71
2022/01/17 01:41:59;;;;;;;18.20;9.40;;;3.30;99.90;;;;;;4965737;28;20284;-71
2022/01/17 01:44:27;;;;;;;16.75;8.43;;;3.30;99.90;;;;;;4964240;28;20726;-72
2022/01/17 01:46:55;;;;;;;16.48;8.65;;;3.30;99.90;;;;;;4990978;28;20034;-72
2022/01/17 01:49:22;;;;;;;17.27;8.88;;;3.30;99.90;;;;;;4974127;28;20057;-71
2022/01/17 01:51:48;;;;;;;14.70;9.02;;;3.30;99.90;;;;;;4964141;28;20401;-72
2022/01/17 01:54:15;;;;;;;16.33;8.18;;;3.30;99.90;;;;;;4968074;28;20026;-72
2022/01/17 01:56:44;;;;;;;17.83;9.20;;;3.20;99.90;;;;;;4965218;28;20065;-72
2022/01/17 01:59:13;;;;;;;16.00;8.90;;;3.20;99.90;;;;;;4964138;28;20030;-71
2022/01/17 02:01:40;;;;;;;14.70;8.23;;;3.10;99.90;;;;;;4965786;28;20026;-72
2022/01/17 02:04:06;;;;;;;;;;;3.10;99.90;;;;;;4970196;28;20059;-72
2022/01/17 02:06:32;;;;;;;17.98;8.95;;;3.10;99.90;;;;;;4962331;28;19910;-72
2022/01/17 02:09:01;;;;;;;16.42;8.93;;;3.10;99.90;;;;;;4971250;28;20057;-72
2022/01/17 02:11:26;;;;;;;16.55;8.98;;;3.10;99.90;;;;;;4963998;28;20080;-71
2022/01/17 02:13:52;;;;;;;14.63;8.13;;;3.10;99.90;;;;;;4968976;28;20019;-72
2022/01/17 02:16:22;;;;;;;14.60;8.33;;;3.10;99.90;;;;;;4960862;28;20082;-71
2022/01/17 02:18:49;;;;;;;15.30;7.72;;;3.10;99.90;;;;;;4967457;28;20720;-71
2022/01/17 02:23:52;;;;;;;16.55;9.02;;;3.10;99.90;;;;;;4959688;28;20117;-71
2022/01/17 02:26:20;;;;;;;16.48;9.32;;;3.10;99.90;;;;;;4959628;28;20453;-72
2022/01/17 02:28:48;;;;;;;17.80;9.38;;;3.10;99.90;;;;;;4962527;28;20069;-72
2022/01/17 02:31:16;;;;;;;18.98;9.52;;;3.10;99.90;;;;;;4968677;28;20029;-72
2022/01/17 02:33:42;;;;;;;20.60;10.13;;;3.10;99.90;;;;;;4964902;28;20201;-72
2022/01/17 02:36:08;;;;;;;17.23;9.13;;;3.10;99.90;;;;;;4966683;28;20105;-72
2022/01/17 02:38:35;;;;;;;19.60;10.30;;;3.10;99.90;;;;;;4960903;28;20273;-72
2022/01/17 02:41:00;;;;;;;20.38;10.55;;;3.00;99.90;;;;;;4959925;28;20026;-72
2022/01/17 02:43:27;;;;;;;18.00;10.07;;;3.00;99.90;;;;;;4962981;28;20026;-72
2022/01/17 02:48:26;;;;;;;19.55;10.32;;;3.00;99.90;;;;;;4966116;28;20073;-72
2022/01/17 02:50:54;;;;;;;18.38;10.50;;;3.00;99.90;;;;;;4965497;28;20671;-71
2022/01/17 02:53:21;;;;;;;19.10;10.50;;;2.90;99.90;;;;;;4962536;28;20496;-72
2022/01/17 02:55:55;;;;;;;20.98;10.85;;;2.90;99.90;;;;;;4960645;28;20153;-72
2022/01/17 02:58:25;;;;;;;18.20;10.07;;;2.90;99.90;;;;;;4960994;28;20018;-71
2022/01/17 03:00:53;;;;;;;18.42;9.80;;;2.90;99.90;;;;;;4963539;28;20030;-73
2022/01/17 03:03:23;;;;;;;19.67;10.98;;;2.90;99.90;;;;;;4964466;28;20030;-71
2022/01/17 03:05:49;;;;;;;20.58;10.50;;;2.90;99.90;;;;;;4966889;28;20054;-71
2022/01/17 03:08:20;;;;;;;19.93;10.77;;;2.90;99.90;;;;;;4964416;28;20286;-71
2022/01/17 03:10:50;;;;;;;18.38;10.00;;;3.00;99.90;;;;;;4962766;28;20022;-71
2022/01/17 03:13:17;;;;;;;18.90;9.77;;;3.00;99.90;;;;;;4957453;28;20133;-71
2022/01/17 03:15:46;;;;;;;20.52;10.35;;;3.00;99.90;;;;;;4961329;28;20049;-71
2022/01/17 03:18:12;;;;;;;19.10;8.25;;;3.00;99.90;;;;;;4960809;28;20041;-72
2022/01/17 03:20:38;;;;;;;17.40;9.90;;;3.00;99.90;;;;;;4963779;28;20053;-71
2022/01/17 03:23:05;;;;;;;16.35;9.10;;;3.10;99.90;;;;;;4964525;28;20027;-72
2022/01/17 03:25:31;;;;;;;15.75;8.88;;;3.10;99.90;;;;;;4963611;28;20030;-72
2022/01/17 03:27:57;;;;;;;19.67;9.13;;;3.10;99.90;;;;;;4960120;28;20025;-72
2022/01/17 03:30:23;;;;;;;17.27;9.27;;;3.10;99.90;;;;;;4961965;28;20022;-72
2022/01/17 03:32:50;;;;;;;19.90;8.87;;;3.10;99.90;;;;;;4966247;28;20090;-72
2022/01/17 03:35:18;;;;;;;15.82;8.38;;;3.10;99.90;;;;;;4965374;28;20136;-71
2022/01/17 03:37:44;;;;;;;15.23;8.10;;;3.20;99.90;;;;;;4961899;28;20034;-73
2022/01/17 03:40:12;;;;;;;15.73;8.13;;;3.30;99.90;;;;;;4962603;28;20033;-72
2022/01/17 03:42:40;;;;;;;17.63;8.10;;;3.30;99.90;;;;;;4962844;28;20118;-72
2022/01/17 03:45:07;;;;;;;16.50;7.70;;;3.30;99.90;;;;;;4961175;28;20035;-72
2022/01/17 03:47:36;;;;;;;15.27;7.75;;;3.40;99.90;;;;;;4961474;28;20396;-71
2022/01/17 03:50:05;;;;;;;13.27;6.70;;;3.50;99.90;;;;;;4959092;28;20030;-72
2022/01/17 03:52:31;;;;;;;12.25;7.18;;;3.50;99.90;;;;;;4962685;28;20039;-71
2022/01/17 03:54:58;;;;;;;12.43;7.27;;;3.60;99.90;;;;;;4961913;28;20022;-72
2022/01/17 03:57:24;;;;;;;13.85;6.93;;;3.70;99.90;;;;;;4962719;28;20023;-71
2022/01/17 03:59:50;;;;;;;12.68;7.50;;;3.70;99.90;;;;;;4960075;28;20141;-74
2022/01/17 04:02:17;;;;;;;10.87;6.17;;;3.70;99.90;;;;;;4965974;28;20283;-72
2022/01/17 04:04:42;;;;;;;15.00;7.20;;;3.80;99.90;;;;;;4969072;28;20337;-72
2022/01/17 04:07:08;;;;;;;14.10;7.47;;;3.80;99.90;;;;;;4960054;28;20080;-73
2022/01/17 04:09:34;;;;;;;12.23;7.30;;;3.80;99.90;;;;;;4965507;28;20080;-72
2022/01/17 04:11:59;;;;;;;14.30;7.53;;;3.80;99.90;;;;;;4959083;28;20023;-72
2022/01/17 04:14:25;;;;;;;15.37;8.10;;;3.80;99.90;;;;;;4962258;28;20018;-72
2022/01/17 04:16:52;;;;;;;12.00;6.97;;;3.80;99.90;;;;;;4966066;28;20076;-72
2022/01/17 04:19:20;;;;;;;11.32;6.80;;;3.80;99.90;;;;;;4958431;28;20485;-71
2022/01/17 04:21:47;;;;;;;10.88;6.10;;;3.80;99.90;;;;;;4960971;28;20815;-72
2022/01/17 04:24:14;;;;;;;10.45;6.03;;;3.90;99.90;;;;;;4963056;28;21198;-72
2022/01/17 04:26:42;;;;;;;11.60;6.22;;;3.90;99.90;;;;;;4961264;28;20038;-72
2022/01/17 04:29:11;;;;;;;10.02;5.63;;;3.90;99.90;;;;;;4959042;28;20014;-72
2022/01/17 04:31:39;;;;;;;11.68;6.35;;;3.90;99.90;;;;;;4962821;28;20045;-72
2022/01/17 04:34:04;;;;;;;10.85;5.85;;;3.90;99.90;;;;;;4960033;28;20584;-72
2022/01/17 04:36:30;;;;;;;13.97;6.83;;;4.00;99.90;;;;;;4970484;28;20042;-72
2022/01/17 04:38:56;;;;;;;10.10;5.70;;;4.00;99.90;;;;;;4963534;28;20022;-72
2022/01/17 04:41:28;;;;;;;11.27;6.40;;;4.00;99.90;;;;;;4966237;28;20031;-72
2022/01/17 04:43:58;;;;;;;10.15;6.00;;;4.00;99.90;;;;;;4962940;28;20023;-72
2022/01/17 04:46:25;;;;;;;13.65;7.50;;;4.00;99.90;;;;;;4966871;28;20027;-71
2022/01/17 04:48:50;;;;;;;;;;;4.00;99.90;;;;;;4967456;28;20043;-71
2022/01/17 04:51:16;;;;;;;13.63;7.32;;;3.90;99.90;;;;;;4962977;28;20544;-72
2022/01/17 04:53:51;;;;;;;14.90;7.57;;;3.90;99.90;;;;;;4969054;28;20041;-72
2022/01/17 04:56:17;;;;;;;11.38;6.35;;;3.90;99.90;;;;;;4959310;28;20039;-71
2022/01/17 04:58:43;;;;;;;13.38;7.10;;;3.80;99.90;;;;;;4962277;28;20026;-71
2022/01/17 05:01:09;;;;;;;14.93;7.10;;;3.80;99.90;;;;;;4961183;28;20088;-71
2022/01/17 05:03:35;;;;;;;13.50;7.30;;;3.80;99.90;;;;;;4968749;28;20031;-72
2022/01/17 05:06:01;;;;;;;14.33;7.70;;;3.80;99.90;;;;;;4967084;28;20546;-72
2022/01/17 05:08:26;;;;;;;13.07;7.77;;;3.90;99.90;;;;;;4963447;28;20052;-71
2022/01/17 05:10:54;;;;;;;12.77;6.83;;;3.90;99.90;;;;;;4969106;28;20488;-71
2022/01/17 05:13:26;;;;;;;15.80;8.45;;;4.00;99.90;;;;;;4959479;28;20019;-72
2022/01/17 05:16:05;;;;;;;13.57;7.63;;;4.00;99.90;;;;;;4971112;28;20357;-72
2022/01/17 05:21:01;;;;;;;14.63;8.02;;;4.10;99.90;;;;;;4967405;28;20033;-72
2022/01/17 05:23:27;;;;;;;16.15;7.55;;;4.10;99.90;;;;;;4967852;28;20030;-71
2022/01/17 05:25:54;;;;;;;14.47;8.43;;;4.10;99.90;;;;;;4962047;28;20035;-71
2022/01/17 05:28:19;;;;;;;13.95;8.13;;;4.10;99.90;;;;;;4957932;28;21035;-72
2022/01/17 05:30:45;;;;;;;16.87;8.07;;;4.10;99.90;;;;;;4968550;28;20108;-71
2022/01/17 05:33:11;;;;;;;16.73;8.73;;;4.10;99.90;;;;;;4957009;28;20760;-71
2022/01/17 05:35:36;;;;;;;17.67;8.90;;;4.10;99.90;;;;;;4967910;28;20030;-71
2022/01/17 05:38:03;;;;;;;16.67;9.30;;;4.10;99.90;;;;;;4961507;28;20027;-72
2022/01/17 05:40:29;;;;;;;17.25;9.40;;;4.10;99.90;;;;;;4966031;28;20407;-71
2022/01/17 05:42:56;;;;;;;17.15;9.48;;;4.10;99.90;;;;;;4965544;28;20089;-72
2022/01/17 05:45:24;;;;;;;17.27;9.45;;;4.10;99.90;;;;;;4970501;28;20026;-72
2022/01/17 05:47:50;;;;;;;19.60;10.00;;;4.10;99.90;;;;;;4968161;28;20043;-72
2022/01/17 05:50:16;;;;;;;19.20;10.10;;;4.10;99.90;;;;;;4964410;28;20140;-72
2022/01/17 05:52:43;;;;;;;17.92;10.05;;;4.10;99.90;;;;;;4970474;28;20039;-71
2022/01/17 05:55:12;;;;;;;18.00;9.38;;;4.20;99.90;;;;;;4959355;28;20019;-73
2022/01/17 05:57:38;;;;;;;20.23;10.18;;;4.10;99.90;;;;;;4969209;28;20031;-72
2022/01/17 06:00:08;;;;;;;17.27;9.43;;;4.10;99.90;;;;;;4956812;28;20023;-71
2022/01/17 06:02:35;;;;;;;18.38;9.52;;;4.10;99.90;;;;;;4965669;28;20859;-72
2022/01/17 06:05:00;;;;;;;16.90;9.27;;;4.10;99.90;;;;;;4968876;28;20125;-72
2022/01/17 06:07:26;;;;;;;21.13;10.80;;;4.10;99.90;;;;;;4964435;28;20122;-73
2022/01/17 06:09:52;;;;;;;19.17;9.13;;;4.20;99.90;;;;;;4967718;28;20023;-73
2022/01/17 06:12:17;;;;;;;16.87;9.77;;;4.20;99.90;;;;;;4964873;28;20030;-71
2022/01/17 06:14:43;;;;;;;20.00;10.33;;;4.20;99.90;;;;;;4973453;28;20485;-72
2022/01/17 06:17:10;;;;;;;21.83;11.23;;;4.20;99.90;;;;;;4966939;28;20022;-74
2022/01/17 06:19:36;;;;;;;;;;;4.10;99.90;;;;;;4967723;28;20026;-72
2022/01/17 06:22:03;;;;;;;18.42;9.65;;;4.10;99.90;;;;;;4967259;28;19921;-72
2022/01/17 06:24:29;;;;;;;17.65;9.02;;;4.00;99.90;;;;;;4967485;28;20037;-71
2022/01/17 06:26:56;;;;;;;18.13;9.77;;;4.10;99.90;;;;;;4970575;28;20026;-71
2022/01/17 06:29:22;;;;;;;;;;;4.00;99.90;;;;;;4963851;28;20124;-72
2022/01/17 06:31:47;;;;;;;17.02;9.57;;;4.00;99.90;;;;;;4968151;28;20490;-72
2022/01/17 06:34:13;;;;;;;16.37;9.53;;;4.00;99.90;;;;;;4960031;28;20034;-71
2022/01/17 06:36:41;;;;;;;18.77;8.97;;;4.00;99.90;;;;;;4969180;28;20023;-72
2022/01/17 06:39:10;;;;;;;16.83;9.10;;;4.10;99.90;;;;;;4962434;28;20073;-72
2022/01/17 06:41:38;;;;;;;17.58;9.32;;;4.10;99.90;;;;;;4968009;28;20029;-71
2022/01/17 06:44:04;;;;;;;17.40;9.05;;;4.10;99.90;;;;;;4968797;28;20026;-72
2022/01/17 06:46:30;;;;;;;15.05;8.10;;;4.10;99.90;;;;;;4964649;28;20019;-71
2022/01/17 06:48:56;;;;;;;19.47;9.17;;;4.20;99.90;;;;;;4964910;28;20029;-72
2022/01/17 06:51:22;;;;;;;21.07;8.60;;;4.20;99.90;;;;;;4962626;28;21015;-73
2022/01/17 06:53:48;;;;;;;17.53;9.47;;;4.30;99.90;;;;;;4968558;28;20031;-72
2022/01/17 06:56:14;;;;;;;16.23;9.02;;;4.30;99.90;;;;;;4959906;28;20707;-72
2022/01/17 06:58:42;;;;;;;15.40;8.73;;;4.30;99.90;;;;;;4970173;28;20022;-71
2022/01/17 07:01:09;;;;;;;17.00;8.40;;;4.30;99.90;;;;;;4960945;28;20281;-71
2022/01/17 07:03:35;;;;;;;15.77;9.13;;;4.30;99.90;;;;;;4968156;28;20022;-71
2022/01/17 07:06:01;;;;;;;14.57;8.07;;;4.40;99.90;;;;;;4965906;28;20030;-72
2022/01/17 07:08:27;;;;;;;16.05;8.75;;;4.40;99.90;;;;;;4966754;28;20071;-72
2022/01/17 07:10:53;;;;;;;17.80;8.50;;;4.40;99.90;;;;;;4965998;28;20118;-71
2022/01/17 07:13:19;;;;;;;20.52;9.27;;;4.40;99.90;;;;;;4964217;28;20041;-72
2022/01/17 07:15:45;;;;;;;16.43;9.37;;;4.40;99.90;;;;;;4963409;28;20027;-72
2022/01/17 07:18:12;;;;;;;14.17;8.00;;;4.40;99.90;;;;;;4962740;28;20032;-72
2022/01/17 07:20:38;;;;;;;19.55;9.50;;;4.40;99.90;;;;;;4967963;28;20038;-72
2022/01/17 07:23:05;;;;;;;15.70;9.07;;;4.40;99.90;;;;;;4960943;28;20027;-72
2022/01/17 07:25:31;;;;;;;;;;;4.40;99.90;;;;;;4966784;28;20038;-71
2022/01/17 07:27:57;;;;;;;18.05;9.68;;;4.40;99.90;;;;;;4962548;28;20283;-72
2022/01/17 07:30:23;;;;;;;15.57;8.18;;;4.50;99.90;;;;;;4961977;28;20027;-73
2022/01/17 07:32:50;;;;;;;15.32;8.45;;;4.50;99.90;;;;;;4959784;28;20038;-72
2022/01/17 07:35:16;;;;;;;19.88;9.30;;;4.50;99.90;;;;;;4958512;28;21385;-72
2022/01/17 07:37:42;;;;;;;17.23;8.65;;;4.50;99.90;;;;;;4964683;28;20535;-72
2022/01/17 07:40:10;;;;;;;20.80;8.73;;;4.50;99.90;;;;;;4961997;28;20034;-72
2022/01/17 07:42:36;;;;;;;20.27;9.50;;;4.50;99.90;;;;;;4963160;28;20464;-71
2022/01/17 07:45:10;;;;;;;19.70;9.20;;;4.50;99.90;;;;;;4966736;28;20026;-71
2022/01/17 07:48:45;;;;;;;18.02;8.90;;;4.50;99.90;;;;;;4966208;28;20133;-72
2022/01/17 07:50:25;;;;;;;17.30;8.98;;;4.60;99.90;;;;;;4951101;28;20039;-72
2022/01/17 07:52:52;;;;;;;17.87;9.30;;;4.50;99.90;;;;;;4961182;28;20776;-72
2022/01/17 07:55:20;;;;;;;17.38;8.57;;;4.50;99.90;;;;;;4956811;28;20644;-71
2022/01/17 07:57:46;;;;;;;21.33;9.48;;;4.60;99.90;;;;;;4963503;28;20030;-72
2022/01/17 08:00:15;;;;;;;16.75;8.68;;;4.60;99.90;;;;;;4961461;28;20053;-71
2022/01/17 08:02:42;;;;;;;16.40;8.32;;;4.60;99.90;;;;;;4966689;28;20109;-71
2022/01/17 08:05:10;;;;;;;16.60;8.68;;;4.60;99.90;;;;;;4967975;28;20105;-72
2022/01/17 08:07:36;;;;;;;14.07;8.27;;;4.60;99.90;;;;;;4965353;28;20426;-71
2022/01/17 08:10:02;;;;;;;16.05;8.63;;;4.60;99.90;;;;;;4965481;28;21004;-71
2022/01/17 08:12:28;;;;;;;16.05;8.95;;;4.70;99.90;;;;;;4961819;28;20034;-71
2022/01/17 08:14:57;;;;;;;17.33;7.80;;;4.70;99.90;;;;;;4968351;28;20021;-72
2022/01/17 08:17:24;;;;;;;14.73;7.85;;;4.70;99.90;;;;;;4959995;28;20046;-72
2022/01/17 08:19:51;;;;;;;15.82;8.05;;;4.70;99.90;;;;;;4967664;28;20022;-72
2022/01/17 08:22:18;;;;;;;12.20;7.30;;;4.70;99.90;;;;;;4962552;28;20034;-72
2022/01/17 08:24:43;;;;;;;13.30;7.45;;;4.70;99.90;;;;;;4966807;28;20034;-71
2022/01/17 08:27:09;;;;;;;12.57;7.13;;;4.80;99.90;;;;;;4963051;28;20535;-72
2022/01/17 08:29:35;;;;;;;14.53;7.23;;;4.80;99.90;;;;;;4959834;28;20649;-71
2022/01/17 08:32:04;;;;;;;12.97;7.07;;;4.80;99.90;;;;;;4969449;28;20025;-71
2022/01/17 08:34:31;;;;;;;12.10;6.40;;;4.80;99.90;;;;;;4965599;28;20431;-72
2022/01/17 08:36:57;;;;;;;12.48;6.10;;;4.80;99.90;;;;;;4971538;28;20022;-71
2022/01/17 08:39:24;;;;;;;12.23;6.40;;;4.80;99.90;;;;;;4967365;28;20045;-71
2022/01/17 08:41:50;;;;;;;;;;;4.90;99.90;;;;;;4971683;28;20025;-72
2022/01/17 08:44:19;;;;;;;10.48;5.55;;;4.90;99.90;;;;;;4968396;28;19914;-71
2022/01/17 08:46:45;;;;;;;9.88;5.85;;;4.90;99.90;;;;;;4966964;28;20034;-71
2022/01/17 08:49:11;;;;;;;15.20;6.47;;;4.90;99.90;;;;;;4968447;28;20140;-71
2022/01/17 08:51:37;;;;;;;10.20;5.60;;;4.90;99.90;;;;;;4969256;28;20607;-72
2022/01/17 08:54:04;;;;;;;9.45;5.00;;;5.00;99.90;;;;;;4967857;28;20014;-75
2022/01/17 08:56:30;;;;;;;;;;;5.00;99.90;;;;;;4964752;28;20879;-72
2022/01/17 08:58:57;;;;;;;9.60;4.82;;;5.00;99.90;;;;;;4966081;28;19910;-71
2022/01/17 09:01:23;;;;;;;11.35;5.20;;;5.00;99.90;;;;;;4960759;28;20041;-74
2022/01/17 09:03:49;;;;;;;11.20;5.13;;;5.00;99.90;;;;;;4965523;28;20447;-72
2022/01/17 09:06:15;;;;;;;9.65;4.70;;;5.10;99.90;;;;;;4965669;28;20054;-72
2022/01/17 09:08:42;;;;;;;8.67;4.67;;;5.10;99.90;;;;;;4969017;28;20057;-72
2022/01/17 09:11:08;;;;;;;23.90;5.32;;;5.10;99.90;;;;;;4964403;28;20676;-72
2022/01/17 09:13:34;;;;;;;9.18;4.43;;;5.10;99.90;;;;;;4961255;28;20027;-73
2022/01/17 09:16:00;;;;;;;10.23;4.70;;;5.20;99.90;;;;;;4963925;28;20046;-72
2022/01/17 09:18:26;;;;;;;8.20;4.83;;;5.20;99.90;;;;;;4963839;28;20270;-71
2022/01/17 09:20:52;;;;;;;9.57;5.15;;;5.20;99.90;;;;;;4992154;28;20034;-72
2022/01/17 09:23:18;;;;;;;6.93;4.22;;;5.20;99.90;;;;;;4965998;28;20547;-72
2022/01/17 09:25:44;;;;;;;7.97;4.60;;;5.20;99.90;;;;;;4964496;28;20532;-72
2022/01/17 09:28:11;;;;;;;8.00;4.78;;;5.30;99.90;;;;;;4968524;28;20739;-72
2022/01/17 09:30:37;;;;;;;8.43;4.40;;;5.30;99.90;;;;;;4961006;28;20469;-72
2022/01/17 09:33:03;;;;;;;8.63;4.85;;;5.30;99.90;;;;;;4960777;28;20569;-72
2022/01/17 09:35:30;;;;;;;11.30;4.65;;;5.30;99.90;;;;;;4967937;28;20023;-71
2022/01/17 09:37:56;;;;;;;8.02;4.68;;;5.30;99.90;;;;;;4967001;28;20027;-72
2022/01/17 09:40:22;;;;;;;7.50;4.70;;;5.30;99.90;;;;;;4973996;28;20026;-72
2022/01/17 09:42:49;;;;;;;9.77;6.03;;;5.20;99.90;;;;;;4957213;28;20039;-73
2022/01/17 09:45:20;;;;;;;7.68;4.90;;;5.30;99.90;;;;;;4966361;28;20084;-73
2022/01/17 09:47:48;;;;;;;9.57;4.82;;;5.30;99.90;;;;;;4966779;28;20168;-73
2022/01/17 09:50:31;;;;;;;10.68;5.43;;;5.40;99.90;;;;;;4963489;28;20022;-72
2022/01/17 09:52:59;;;;;;;8.90;5.18;;;5.40;99.90;;;;;;4959596;28;20027;-73
2022/01/17 09:55:29;;;;;;;8.90;5.32;;;5.50;99.90;;;;;;4964124;28;20031;-72
2022/01/17 09:58:05;;;;;;;10.63;5.65;;;5.50;99.90;;;;;;4955478;28;20031;-74
2022/01/17 10:00:36;;;;;;;9.80;5.57;;;5.50;99.90;;;;;;4964079;28;20015;-73
2022/01/17 10:03:07;;;;;;;10.48;6.10;;;5.50;99.90;;;;;;4962578;28;20027;-72
2022/01/17 10:05:35;;;;;;;10.60;5.50;;;5.50;99.90;;;;;;4969215;28;20572;-72
2022/01/17 10:08:04;;;;;;;11.18;6.15;;;5.50;99.90;;;;;;4960241;28;20035;-72
2022/01/17 10:10:45;;;;;;;9.65;5.60;;;5.50;99.90;;;;;;4993438;28;20526;-72
2022/01/17 10:13:18;;;;;;;10.43;5.68;;;5.40;99.90;;;;;;4963351;28;20019;-72
2022/01/17 10:16:08;;;;;;;12.43;5.70;;;5.50;99.90;;;;;;4970088;28;20392;-72
2022/01/17 10:18:39;;;;;;;10.05;5.60;;;5.50;99.90;;;;;;4966959;28;20076;-71
2022/01/17 10:21:19;;;;;;;13.65;5.93;;;5.60;99.90;;;;;;4961445;28;20658;-71
2022/01/17 10:35:32;;;;;;;10.23;5.30;;;5.80;99.90;;;;;;4964508;28;20136;-72
2022/01/17 10:38:05;;;;;;;9.10;5.60;;;5.80;99.90;;;;;;4970452;28;20114;-72
2022/01/17 10:40:37;;;;;;;9.60;5.28;;;5.90;99.90;;;;;;4964462;28;20022;-71
2022/01/17 10:43:05;;;;;;;9.73;5.45;;;5.80;99.80;;;;;;4957209;28;20061;-72
2022/01/17 10:45:39;;;;;;;8.50;5.07;;;5.80;99.90;;;;;;4966486;28;20019;-73
2022/01/17 10:48:06;;;;;;;8.60;5.32;;;5.80;99.70;;;;;;4962873;28;20085;-72
2022/01/17 10:50:40;;;;;;;9.38;5.13;;;5.90;99.50;;;;;;4965791;28;20056;-73
2022/01/17 10:53:08;;;;;;;9.90;5.22;;;5.90;99.50;;;;;;4964451;28;21036;-73
2022/01/17 10:55:40;;;;;;;8.32;4.85;;;5.90;99.20;;;;;;4961952;28;20025;-72
2022/01/17 10:58:10;;;;;;;9.30;4.80;;;5.90;99.10;;;;;;4963450;28;21663;-72
2022/01/17 11:00:42;;;;;;;8.90;5.20;;;5.90;99.20;;;;;;4967308;28;20014;-72
2022/01/17 11:03:13;;;;;;;9.93;5.40;;;5.90;98.90;;;;;;4959863;28;20429;-73
2022/01/17 11:05:41;;;;;;;7.07;4.10;;;5.80;99.00;;;;;;4963922;28;20068;-72
2022/01/17 11:08:08;;;;;;;7.47;4.85;;;5.90;99.00;;;;;;4963513;28;20035;-72
2022/01/17 11:10:42;;;;;;;7.38;4.38;;;6.00;99.10;;;;;;4968321;28;20019;-72
2022/01/17 11:13:11;;;;;;;8.18;4.47;;;6.10;98.50;;;;;;4961299;28;20019;-73
2022/01/17 11:15:38;;;;;;;6.95;4.47;;;6.10;98.20;;;;;;4961022;28;20101;-72
2022/01/17 11:18:17;;;;;;;8.07;4.63;;;6.20;98.00;;;;;;4959588;28;20515;-72
2022/01/17 11:20:45;;;;;;;8.65;4.88;;;6.20;98.00;;;;;;4971001;28;20030;-72
2022/01/17 11:23:11;;;;;;;8.50;4.43;;;6.30;98.00;;;;;;4959624;28;20022;-72
2022/01/17 11:25:41;;;;;;;7.77;4.60;;;6.40;97.50;;;;;;4963464;28;20033;-72
2022/01/17 11:28:08;;;;;;;8.38;4.45;;;6.50;97.30;;;;;;4961580;28;20285;-72
2022/01/17 11:30:35;;;;;;;;;;;6.70;97.20;;;;;;4968658;28;20022;-72
2022/01/17 11:33:04;;;;;;;8.70;4.85;;;6.90;96.30;;;;;;4960475;28;19910;-72
2022/01/17 11:35:31;;;;;;;6.95;3.60;;;6.90;96.10;;;;;;4959249;28;20022;-72
2022/01/17 11:37:59;;;;;;;9.05;4.50;;;6.90;96.10;;;;;;4957498;28;20073;-74
2022/01/17 11:40:44;;;;;;;6.35;3.83;;;6.90;95.90;;;;;;4961360;28;20394;-74
2022/01/17 11:43:33;;;;;;;7.93;4.13;;;6.90;95.90;;;;;;4958935;28;20077;-73
2022/01/17 11:46:21;;;;;;;5.75;3.67;;;6.90;95.80;;;;;;4959270;28;20042;-72
2022/01/17 11:49:07;;;;;;;6.88;3.78;;;7.00;95.80;;;;;;4971258;28;20031;-74
2022/01/17 11:51:44;;;;;;;8.00;4.20;;;6.80;95.60;;;;;;4961934;28;20088;-71
2022/01/17 11:54:17;;;;;;;7.13;4.22;;;6.70;96.00;;;;;;4961087;28;20018;-71
2022/01/17 11:56:58;;;;;;;8.38;4.10;;;6.60;96.40;;;;;;4961548;28;20034;-72
2022/01/17 11:59:35;;;;;;;7.55;4.07;;;6.50;96.70;;;;;;4988012;28;20562;-74
2022/01/17 12:02:14;;;;;;;7.63;4.60;;;6.50;97.00;;;;;;4959538;28;20066;-72
2022/01/17 12:04:40;;;;;;;8.55;4.60;;;6.60;96.90;;;;;;4966319;28;20361;-75
2022/01/17 12:07:06;;;;;;;7.32;4.00;;;6.80;99.70;;;;;;4961536;28;20131;-76
2022/01/17 12:09:44;;;;;;;6.30;3.77;;;7.40;99.20;;;;;;4968793;28;20634;-77
2022/01/17 12:12:15;;;;;;;7.03;4.30;;;7.90;94.50;;;;;;4960988;28;20016;-77
2022/01/17 12:14:52;;;;;;;11.48;5.13;;;8.00;94.60;;;;;;4975570;28;20017;-78
2022/01/17 12:17:20;;;;;;;7.10;4.50;;;8.10;93.70;;;;;;4964942;28;20032;-77
2022/01/17 12:20:04;;;;;;;10.55;4.53;;;7.90;93.10;;;;;;4962288;28;20598;-72
2022/01/17 12:22:43;;;;;;;7.32;4.55;;;7.40;94.00;;;;;;4990102;28;20530;-72
2022/01/17 12:25:24;;;;;;;8.45;4.25;;;7.20;94.80;;;;;;4965049;28;20030;-72
2022/01/17 12:28:12;;;;;;;6.78;4.05;;;7.00;95.30;;;;;;4959231;28;20030;-75
2022/01/17 12:30:53;;;;;;;12.35;4.50;;;7.00;95.50;;;;;;4958903;28;20045;-73
2022/01/17 12:33:39;;;;;;;6.18;3.70;;;6.90;95.50;;;;;;4958573;28;20075;-72
2022/01/17 12:36:28;;;;;;;9.85;4.18;;;6.80;95.90;;;;;;4953951;28;20022;-72
2022/01/17 12:39:20;;;;;;;9.18;4.18;;;6.70;95.90;;;;;;4962688;28;20042;-72
2022/01/17 12:41:49;;;;;;;6.97;3.97;;;6.70;95.90;;;;;;4958990;28;21410;-72
2022/01/17 12:44:24;;;;;;;6.45;3.92;;;6.60;96.00;;;;;;4963941;28;20223;-72
2022/01/17 12:46:53;;;;;;;7.53;3.78;;;6.50;96.30;;;;;;4965599;28;20023;-72
2022/01/17 12:49:20;;;;;;;7.80;3.85;;;6.40;96.50;;;;;;4966823;28;20475;-72
2022/01/17 12:51:55;;;;;;;9.45;4.30;;;6.40;96.70;;;;;;4968585;28;20035;-71
2022/01/17 12:54:30;;;;;;;6.53;3.83;;;6.30;96.70;;;;;;4970248;28;20033;-72
2022/01/17 12:56:58;;;;;;;6.38;4.15;;;6.20;97.00;;;;;;4964121;28;20560;-73
2022/01/17 12:59:25;;;;;;;7.10;4.60;;;6.30;97.20;;;;;;4961987;28;20384;-72
2022/01/17 13:02:01;;;;;;;9.18;4.40;;;6.20;97.40;;;;;;4963566;28;20022;-71
2022/01/17 13:04:32;;;;;;;9.05;4.80;;;6.20;97.50;;;;;;4956938;28;20033;-72
2022/01/17 13:06:57;;;;;;;7.05;4.13;;;6.20;97.90;;;;;;4964499;28;20022;-72
2022/01/17 13:09:25;;;;;;;10.40;4.37;;;6.20;98.20;;;;;;4974288;28;20029;-72
2022/01/17 13:11:53;;;;;;;8.43;4.32;;;6.20;98.70;;;;;;4968395;28;20096;-73
2022/01/17 13:14:21;;;;;;;7.68;4.40;;;6.20;99.50;;;;;;4993311;28;20054;-74
2022/01/17 13:16:49;;;;;;;7.10;4.05;;;6.20;99.90;;;;;;4964021;28;20054;-72
2022/01/17 13:19:16;;;;;;;7.05;4.20;;;6.20;99.90;;;;;;4969945;28;20413;-73
2022/01/17 13:21:44;;;;;;;7.10;4.78;;;6.20;99.90;;;;;;4962101;28;20023;-72
2022/01/17 13:24:33;;;;;;;6.40;4.03;;;6.10;99.90;;;;;;4965198;28;20018;-72
2022/01/17 13:27:13;;;;;;;7.20;3.92;;;6.00;99.90;;;;;;4961701;28;20069;-72
2022/01/17 13:29:41;;;;;;;7.07;4.45;;;5.90;99.90;;;;;;4958786;28;20023;-71